Time;durP1;ratioP1;P1;durP2;ratioP2;P2;SDS_P1;SDS_P2;PMS_P1;PMS_P2;Temp;Humidity;BMP_temperature;BMP_pressure;BME280_temperature;BME280_humidity;BME280_pressure;Samples;Min_cycle;Max_cycle;Signal;HPM_P1;HPM_P2
2022/06/14 00:08:19;;;;;;;;;;;;;;;10.16;88.65;100569.20;84873;1336;24387;-76
2022/06/14 00:10:26;;;;;;;;;;;;;;;10.14;88.83;100570.48;84949;1332;22712;-75
2022/06/14 00:12:32;;;;;;;;;;;;;;;10.14;88.92;100569.42;85222;1326;22585;-74
2022/06/14 00:14:38;;;;;;;;;;;;;;;10.12;88.78;100567.41;85265;1325;22573;-76
2022/06/14 00:16:44;;;;;;;;;;;;;;;10.08;88.81;100572.06;85205;1326;24226;-76
2022/06/14 00:18:48;;;;;;;;;;;;;;;10.05;88.93;100570.77;85159;1324;22726;-76
2022/06/14 00:20:54;;;;;;;;;;;;;;;10.02;88.91;100573.65;85232;1327;22698;-75
2022/06/14 00:22:59;;;;;;;;;;;;;;;10.00;88.90;100574.77;85258;1327;22517;-75
2022/06/14 00:25:06;;;;;;;;;;;;;;;9.98;88.95;100580.07;85155;1326;22692;-75
2022/06/14 00:27:11;;;;;;;;;;;;;;;9.97;88.92;100579.39;85201;1327;23248;-75
2022/06/14 00:31:39;;;;;;;;;;;;;;;9.92;89.11;100579.92;85214;1330;22670;-76
2022/06/14 00:33:43;;;;;;;;;;;;;;;9.90;89.11;100582.60;85201;1326;22576;-76
2022/06/14 00:35:46;;;;;;;;;;;;;;;9.89;89.02;100586.27;85180;1329;22545;-76
2022/06/14 00:37:50;;;;;;;;;;;;;;;9.87;88.83;100582.17;85096;1327;22808;-75
2022/06/14 00:39:56;;;;;;;;;;;;;;;9.82;88.92;100580.76;85219;1326;22600;-75
2022/06/14 00:42:00;;;;;;;;;;;;;;;9.78;88.88;100586.42;85213;1330;22823;-74
2022/06/14 00:44:05;;;;;;;;;;;;;;;9.77;89.03;100589.27;85208;1327;23166;-74
2022/06/14 00:46:14;;;;;;;;;;;;;;;9.76;89.26;100591.55;85283;1323;22629;-76
2022/06/14 00:48:19;;;;;;;;;;;;;;;9.76;89.16;100592.08;85253;1330;22677;-76
2022/06/14 00:50:24;;;;;;;;;;;;;;;9.75;89.16;100592.83;85253;1325;23039;-75
2022/06/14 00:52:30;;;;;;;;;;;;;;;9.74;89.27;100592.33;85255;1327;25423;-75
2022/06/14 00:54:34;;;;;;;;;;;;;;;9.73;89.27;100593.41;85266;1329;22725;-75
2022/06/14 00:56:43;;;;;;;;;;;;;;;9.72;89.34;100594.46;85280;1322;23872;-76
2022/06/14 00:58:50;;;;;;;;;;;;;;;9.71;89.16;100594.16;85334;1326;22584;-75
2022/06/14 01:00:57;;;;;;;;;;;;;;;9.68;88.91;100597.92;85207;1326;22909;-76
2022/06/14 01:03:07;;;;;;;;;;;;;;;9.64;88.85;100600.11;85253;1327;22672;-76
2022/06/14 01:05:15;;;;;;;;;;;;;;;9.63;89.09;100596.52;85186;1324;22895;-75
2022/06/14 01:07:22;;;;;;;;;;;;;;;9.60;89.07;100594.67;85315;1329;25422;-74
2022/06/14 01:09:29;;;;;;;;;;;;;;;9.56;88.84;100596.70;85232;1329;22652;-74
2022/06/14 01:11:38;;;;;;;;;;;;;;;9.54;89.00;100595.21;85286;1326;22675;-75
2022/06/14 01:13:42;;;;;;;;;;;;;;;9.52;89.19;100598.40;85240;1326;22636;-76
2022/06/14 01:15:46;;;;;;;;;;;;;;;9.50;89.18;100600.71;85231;1327;24885;-76
2022/06/14 01:17:51;;;;;;;;;;;;;;;9.47;88.92;100602.89;85248;1326;22648;-75
2022/06/14 01:19:56;;;;;;;;;;;;;;;9.43;88.91;100606.17;85286;1328;22668;-74
2022/06/14 01:22:23;;;;;;;;;;;;;;;9.40;88.97;100606.95;85249;1325;22735;-76
2022/06/14 01:24:27;;;;;;;;;;;;;;;9.37;89.13;100607.38;85244;1329;22904;-74
2022/06/14 01:26:31;;;;;;;;;;;;;;;9.36;89.32;100606.20;84606;1330;22590;-76
2022/06/14 01:28:34;;;;;;;;;;;;;;;9.36;89.39;100604.63;85342;1326;25448;-76
2022/06/14 01:30:42;;;;;;;;;;;;;;;9.36;89.40;100604.81;85228;1323;22712;-76
2022/06/14 01:32:49;;;;;;;;;;;;;;;9.33;89.18;100604.88;85324;1324;22728;-75
2022/06/14 01:34:54;;;;;;;;;;;;;;;9.27;89.04;100604.17;85273;1326;22771;-75
2022/06/14 01:37:01;;;;;;;;;;;;;;;9.24;89.22;100605.47;85316;1326;22587;-76
2022/06/14 01:39:14;;;;;;;;;;;;;;;9.22;89.26;100603.46;85231;1326;22514;-76
2022/06/14 01:41:30;;;;;;;;;;;;;;;9.21;89.31;100604.88;85244;1326;22675;-76
2022/06/14 01:43:58;;;;;;;;;;;;;;;9.21;89.39;100608.36;85208;1327;23929;-76
2022/06/14 01:46:03;;;;;;;;;;;;;;;9.19;89.40;100606.66;85138;1326;22844;-76
2022/06/14 01:48:10;;;;;;;;;;;;;;;9.19;89.48;100612.42;85203;1326;24017;-76
2022/06/14 01:52:47;;;;;;;;;;;;;;;9.15;89.22;100612.55;85180;1325;22613;-76
2022/06/14 01:54:56;;;;;;;;;;;;;;;9.11;89.00;100614.56;85193;1327;22597;-75
2022/06/14 01:57:07;;;;;;;;;;;;;;;9.07;89.08;100615.39;85164;1330;22721;-75
2022/06/14 01:59:15;;;;;;;;;;;;;;;9.04;89.30;100621.52;85193;1326;22609;-76
2022/06/14 02:01:21;;;;;;;;;;;;;;;9.03;89.53;100620.20;85187;1330;22972;-76
2022/06/14 02:05:52;;;;;;;;;;;;;;;9.02;89.69;100622.64;85186;1326;22897;-76
2022/06/14 02:07:57;;;;;;;;;;;;;;;9.01;89.53;100622.67;85168;1326;25427;-75
2022/06/14 02:10:04;;;;;;;;;;;;;;;9.00;89.54;100624.43;85271;1327;22905;-76
2022/06/14 02:12:10;;;;;;;;;;;;;;;9.00;89.54;100623.58;85291;1326;22670;-75
2022/06/14 02:14:19;;;;;;;;;;;;;;;8.98;89.37;100627.62;85253;1328;24412;-74
2022/06/14 02:16:29;;;;;;;;;;;;;;;8.93;89.07;100624.98;85270;1330;25319;-76
2022/06/14 02:18:37;;;;;;;;;;;;;;;8.90;89.17;100629.23;85287;1327;23526;-76
2022/06/14 02:20:44;;;;;;;;;;;;;;;8.89;89.24;100633.63;85242;1330;23346;-75
2022/06/14 02:22:50;;;;;;;;;;;;;;;8.88;89.29;100635.74;85290;1330;22682;-76
2022/06/14 02:24:57;;;;;;;;;;;;;;;8.85;89.18;100635.29;85226;1327;22758;-73
2022/06/14 02:27:08;;;;;;;;;;;;;;;8.84;89.25;100637.08;85213;1330;22670;-76
2022/06/14 02:29:16;;;;;;;;;;;;;;;8.82;89.28;100640.76;85220;1328;22671;-75
2022/06/14 02:31:21;;;;;;;;;;;;;;;8.82;89.30;100643.02;85237;1326;25334;-76
2022/06/14 02:33:28;;;;;;;;;;;;;;;8.80;89.27;100640.11;85263;1325;22598;-75
2022/06/14 02:35:34;;;;;;;;;;;;;;;8.81;89.52;100641.48;85162;1331;22647;-75
2022/06/14 02:37:40;;;;;;;;;;;;;;;8.81;89.52;100640.09;85253;1327;22690;-76
2022/06/14 02:39:46;;;;;;;;;;;;;;;8.81;89.47;100643.03;85255;1327;25986;-75
2022/06/14 02:41:59;;;;;;;;;;;;;;;8.80;89.57;100641.32;85226;1327;23099;-76
2022/06/14 02:44:05;;;;;;;;;;;;;;;8.82;89.76;100643.19;85262;1326;22571;-76
2022/06/14 02:46:10;;;;;;;;;;;;;;;8.82;89.72;100642.31;85304;1330;22750;-74
2022/06/14 02:48:16;;;;;;;;;;;;;;;8.83;89.87;100643.86;85126;1326;22862;-76
2022/06/14 02:50:22;;;;;;;;;;;;;;;8.85;89.85;100641.91;85201;1324;22773;-75
2022/06/14 02:52:30;;;;;;;;;;;;;;;8.86;89.92;100638.05;85181;1326;23979;-75
2022/06/14 02:54:35;;;;;;;;;;;;;;;8.87;89.82;100640.64;85198;1323;22968;-74
2022/06/14 02:57:17;;;;;;;;;;;;;;;8.89;89.94;100638.66;85249;1324;24266;-76
2022/06/14 02:59:44;;;;;;;;;;;;;;;8.91;89.96;100638.77;85190;1326;22621;-76
2022/06/14 03:02:09;;;;;;;;;;;;;;;8.94;90.11;100641.30;85153;1325;24223;-76
2022/06/14 03:04:34;;;;;;;;;;;;;;;8.98;90.17;100645.73;85230;1326;22614;-74
2022/06/14 03:06:58;;;;;;;;;;;;;;;9.01;90.43;100652.95;85235;1326;22576;-75
2022/06/14 03:09:23;;;;;;;;;;;;;;;9.07;90.49;100645.83;85220;1324;22539;-76
2022/06/14 03:11:51;;;;;;;;;;;;;;;9.12;90.75;100646.54;85197;1321;22674;-76
2022/06/14 03:14:20;;;;;;;;;;;;;;;9.20;90.70;100650.86;85157;1329;22580;-76
2022/06/14 03:16:45;;;;;;;;;;;;;;;9.25;90.75;100651.05;85172;1326;22592;-76
2022/06/14 03:19:11;;;;;;;;;;;;;;;9.30;90.86;100649.17;85182;1326;22728;-76
2022/06/14 03:21:18;;;;;;;;;;;;;;;9.37;91.06;100651.77;85205;1326;22679;-76
2022/06/14 03:23:27;;;;;;;;;;;;;;;9.47;91.22;100655.33;85200;1329;23928;-76
2022/06/14 03:25:35;;;;;;;;;;;;;;;9.58;91.17;100656.05;85226;1330;25525;-76
2022/06/14 03:27:41;;;;;;;;;;;;;;;9.86;91.91;100656.76;85155;1327;24274;-76
2022/06/14 03:30:03;;;;;;;;;;;;;;;10.19;92.11;100655.05;85190;1326;22574;-75
2022/06/14 03:32:29;;;;;;;;;;;;;;;10.84;92.09;100655.71;85182;1326;22627;-76
2022/06/14 03:35:31;;;;;;;;;;;;;;;;;;;;;
2022/06/14 03:42:07;;;;;;;;;;;;;;;14.92;88.30;100649.59;84262;1341;22842;-75
2022/06/14 03:44:23;;;;;;;;;;;;;;;15.79;86.04;100657.16;84887;1335;22593;-75
2022/06/14 03:46:31;;;;;;;;;;;;;;;16.46;83.23;100661.44;84943;1333;23084;-74
2022/06/14 03:48:42;;;;;;;;;;;;;;;17.11;80.81;100657.96;85090;1329;24285;-75
2022/06/14 03:50:59;;;;;;;;;;;;;;;17.73;78.70;100654.67;85265;1330;22557;-76
2022/06/14 03:53:12;;;;;;;;;;;;;;;18.36;76.63;100657.02;85180;1325;22989;-75
2022/06/14 03:55:42;;;;;;;;;;;;;;;19.00;74.15;100655.36;85040;1330;22607;-76
2022/06/14 03:58:01;;;;;;;;;;;;;;;19.53;71.42;100657.35;84962;1328;431775;-75
2022/06/14 04:00:59;;;;;;;;;;;;;;;20.07;68.51;100663.04;85355;1330;22568;-76
2022/06/14 04:05:54;;;;;;;;;;;;;;;21.11;63.90;100663.75;85238;1322;22654;-76
2022/06/14 04:08:07;;;;;;;;;;;;;;;21.56;62.13;100659.50;85271;1330;22630;-76
2022/06/14 04:10:17;;;;;;;;;;;;;;;22.00;60.33;100653.98;85239;1330;22572;-76
2022/06/14 04:12:38;;;;;;;;;;;;;;;22.43;58.13;100655.27;85215;1326;22665;-76
2022/06/14 04:14:48;;;;;;;;;;;;;;;22.73;56.22;100659.04;85259;1326;22598;-76
2022/06/14 04:17:04;;;;;;;;;;;;;;;23.00;54.63;100655.70;85243;1322;22638;-76
2022/06/14 04:19:12;;;;;;;;;;;;;;;23.29;54.22;100655.31;85262;1325;22599;-76
2022/06/14 04:21:27;;;;;;;;;;;;;;;23.57;52.41;100660.15;85279;1327;22716;-76
2022/06/14 04:23:35;;;;;;;;;;;;;;;23.94;51.30;100655.09;85291;1324;22828;-75
2022/06/14 04:25:42;;;;;;;;;;;;;;;24.28;49.81;100655.80;85294;1331;22602;-75
2022/06/14 04:27:49;;;;;;;;;;;;;;;24.54;49.18;100659.27;85308;1328;22637;-75
2022/06/14 04:29:57;;;;;;;;;;;;;;;24.73;48.30;100661.15;85349;1327;22614;-75
2022/06/14 04:32:04;;;;;;;;;;;;;;;24.88;47.62;100660.42;85374;1326;22589;-75
2022/06/14 04:34:14;;;;;;;;;;;;;;;24.99;47.49;100654.38;85414;1330;23897;-75
2022/06/14 04:36:27;;;;;;;;;;;;;;;25.23;46.60;100658.25;85346;1326;22622;-75
2022/06/14 04:38:44;;;;;;;;;;;;;;;25.17;45.52;100656.11;85347;1325;22564;-75
2022/06/14 04:40:50;;;;;;;;;;;;;;;24.82;45.89;100658.89;85274;1327;22685;-75
2022/06/14 04:42:57;;;;;;;;;;;;;;;24.27;46.84;100657.05;85236;1326;22524;-75
2022/06/14 04:45:07;;;;;;;;;;;;;;;23.98;47.15;100659.59;85225;1326;24090;-75
2022/06/14 04:47:16;;;;;;;;;;;;;;;24.11;47.97;100655.20;85188;1322;22709;-75
2022/06/14 04:49:25;;;;;;;;;;;;;;;24.54;47.89;100660.68;85112;1329;25509;-75
2022/06/14 04:51:31;;;;;;;;;;;;;;;25.05;46.72;100661.33;85196;1327;22625;-75
2022/06/14 04:53:37;;;;;;;;;;;;;;;25.42;46.02;100655.90;85247;1327;22534;-75
2022/06/14 04:55:44;;;;;;;;;;;;;;;25.71;45.07;100653.73;85293;1324;23095;-76
2022/06/14 04:57:50;;;;;;;;;;;;;;;25.94;44.24;100657.77;85254;1326;22673;-75
2022/06/14 04:59:54;;;;;;;;;;;;;;;26.19;43.94;100656.80;85203;1327;22915;-75
2022/06/14 05:02:00;;;;;;;;;;;;;;;26.49;43.93;100664.55;85215;1326;22612;-75
2022/06/14 05:04:06;;;;;;;;;;;;;;;26.82;42.85;100660.67;85231;1326;22514;-75
2022/06/14 05:06:13;;;;;;;;;;;;;;;27.10;42.80;100659.55;85173;1323;22590;-75
2022/06/14 05:08:22;;;;;;;;;;;;;;;27.31;41.76;100659.38;85192;1326;22703;-76
2022/06/14 05:10:27;;;;;;;;;;;;;;;27.43;41.54;100665.13;85157;1326;22621;-75
2022/06/14 05:12:33;;;;;;;;;;;;;;;27.69;40.86;100662.59;85216;1326;22530;-76
2022/06/14 05:14:39;;;;;;;;;;;;;;;28.16;40.56;100668.54;85121;1325;24283;-76
2022/06/14 05:16:44;;;;;;;;;;;;;;;28.58;38.96;100668.39;85172;1326;24059;-75
2022/06/14 05:18:49;;;;;;;;;;;;;;;28.94;38.26;100668.08;85270;1326;22607;-75
2022/06/14 05:20:57;;;;;;;;;;;;;;;29.21;36.91;100664.51;85185;1330;25422;-75
2022/06/14 05:23:02;;;;;;;;;;;;;;;29.31;37.09;100662.33;85242;1330;22594;-77
2022/06/14 05:25:07;;;;;;;;;;;;;;;29.29;36.32;100664.17;85320;1329;22628;-77
2022/06/14 05:27:23;;;;;;;;;;;;;;;29.26;36.47;100661.93;85289;1326;23056;-76
2022/06/14 05:29:30;;;;;;;;;;;;;;;29.40;35.92;100661.45;85250;1330;22664;-76
2022/06/14 05:31:37;;;;;;;;;;;;;;;29.56;36.38;100657.46;85306;1329;22957;-76
2022/06/14 05:33:46;;;;;;;;;;;;;;;29.87;35.96;100654.70;85211;1322;23059;-76
2022/06/14 05:35:54;;;;;;;;;;;;;;;29.98;35.25;100652.55;85234;1327;22593;-76
2022/06/14 05:38:02;;;;;;;;;;;;;;;30.19;34.87;100651.94;85261;1329;23963;-76
2022/06/14 05:40:10;;;;;;;;;;;;;;;30.42;34.64;100652.12;85245;1327;22638;-76
2022/06/14 05:42:15;;;;;;;;;;;;;;;30.39;34.25;100653.86;85239;1322;24425;-76
2022/06/14 05:44:26;;;;;;;;;;;;;;;30.59;33.69;100653.81;85295;1330;22648;-76
2022/06/14 05:46:32;;;;;;;;;;;;;;;30.72;33.40;100654.59;85301;1326;22701;-76
2022/06/14 05:48:40;;;;;;;;;;;;;;;30.88;33.68;100658.38;85406;1324;22570;-76
2022/06/14 05:50:45;;;;;;;;;;;;;;;31.04;33.64;100656.59;85191;1327;22713;-76
2022/06/14 05:52:49;;;;;;;;;;;;;;;31.27;32.94;100661.90;85309;1330;22530;-76
2022/06/14 05:55:09;;;;;;;;;;;;;;;31.55;32.70;100658.72;85212;1329;22618;-76
2022/06/14 06:00:50;;;;;;;;;;;;;;;32.09;30.93;100662.81;84221;1337;22565;-76
2022/06/14 06:06:31;;;;;;;;;;;;;;;31.86;30.48;100666.83;84887;1335;22747;-76
2022/06/14 06:08:47;;;;;;;;;;;;;;;31.73;30.99;100664.64;85045;1330;22543;-76
2022/06/14 06:10:51;;;;;;;;;;;;;;;31.94;31.31;100668.77;85248;1327;24288;-76
2022/06/14 06:17:22;;;;;;;;;;;;;;;;;;;;;
2022/06/14 06:30:46;;;;;;;;;;;;;;;32.63;29.15;100671.77;85174;1329;22832;-76
2022/06/14 06:32:50;;;;;;;;;;;;;;;32.71;29.44;100674.06;85190;1326;22530;-76
2022/06/14 06:34:54;;;;;;;;;;;;;;;32.92;29.46;100674.98;85173;1325;22620;-77
2022/06/14 06:37:02;;;;;;;;;;;;;;;33.08;29.19;100674.77;85274;1324;22776;-77
2022/06/14 06:39:12;;;;;;;;;;;;;;;33.22;28.54;100673.48;85046;1326;23968;-76
2022/06/14 06:41:50;;;;;;;;;;;;;;;33.33;28.60;100666.41;84883;1326;22654;-77
2022/06/14 06:43:53;;;;;;;;;;;;;;;33.29;28.72;100666.23;84869;1321;22556;-77
2022/06/14 06:45:56;;;;;;;;;;;;;;;33.31;28.72;100665.73;84794;1330;22587;-77
2022/06/14 06:48:03;;;;;;;;;;;;;;;33.40;28.62;100667.26;84815;1324;23786;-78
2022/06/14 06:50:19;;;;;;;;;;;;;;;33.66;28.04;100672.54;84787;1327;22613;-78
2022/06/14 06:52:30;;;;;;;;;;;;;;;33.89;27.81;100669.91;84787;1329;22572;-78
2022/06/14 06:54:36;;;;;;;;;;;;;;;33.22;27.72;100673.46;84802;1330;22964;-77
2022/06/14 06:56:40;;;;;;;;;;;;;;;32.99;28.32;100680.91;84785;1328;22907;-77
2022/06/14 06:58:49;;;;;;;;;;;;;;;33.03;27.82;100679.53;84833;1327;25288;-77
2022/06/14 07:00:54;;;;;;;;;;;;;;;33.14;28.03;100679.67;84803;1326;22604;-77
2022/06/14 07:03:04;;;;;;;;;;;;;;;33.02;27.86;100681.29;84791;1329;24436;-77
2022/06/14 07:05:14;;;;;;;;;;;;;;;32.24;28.15;100676.69;84796;1330;25320;-77
2022/06/14 07:07:19;;;;;;;;;;;;;;;32.18;29.25;100673.78;84804;1330;22564;-77
2022/06/14 07:09:24;;;;;;;;;;;;;;;32.24;29.16;100677.80;84808;1325;22552;-77
2022/06/14 07:11:30;;;;;;;;;;;;;;;31.55;28.80;100677.70;84805;1326;24283;-77
2022/06/14 07:13:43;;;;;;;;;;;;;;;30.59;29.46;100680.88;84844;1327;22583;-76
2022/06/14 07:15:50;;;;;;;;;;;;;;;30.31;30.73;100683.08;84826;1329;22984;-76
2022/06/14 07:17:55;;;;;;;;;;;;;;;30.65;30.21;100679.05;84804;1326;22622;-77
2022/06/14 07:20:02;;;;;;;;;;;;;;;31.03;29.61;100679.95;84817;1326;22804;-76
2022/06/14 07:22:11;;;;;;;;;;;;;;;31.41;30.29;100673.71;84920;1326;22655;-76
2022/06/14 07:24:17;;;;;;;;;;;;;;;31.87;29.47;100674.77;84812;1329;22585;-75
2022/06/14 07:26:23;;;;;;;;;;;;;;;31.49;29.37;100677.85;84800;1330;23083;-76
2022/06/14 07:28:31;;;;;;;;;;;;;;;31.16;29.71;100680.14;84809;1321;22712;-77
2022/06/14 07:30:37;;;;;;;;;;;;;;;31.09;29.48;100676.75;84829;1329;25408;-76
2022/06/14 07:32:43;;;;;;;;;;;;;;;30.53;29.13;100677.75;84827;1328;23956;-76
2022/06/14 07:34:47;;;;;;;;;;;;;;;30.25;29.97;100677.23;84847;1329;22596;-77
2022/06/14 07:36:58;;;;;;;;;;;;;;;29.87;30.20;100677.13;84801;1330;24398;-77
2022/06/14 07:39:06;;;;;;;;;;;;;;;29.10;30.48;100679.54;84825;1326;22899;-77
2022/06/14 07:41:14;;;;;;;;;;;;;;;28.34;31.20;100678.61;84806;1327;24307;-77
2022/06/14 07:43:23;;;;;;;;;;;;;;;27.64;32.29;100680.34;84793;1327;24365;-77
2022/06/14 07:45:31;;;;;;;;;;;;;;;28.04;33.72;100680.31;84704;1329;22568;-77
2022/06/14 07:47:37;;;;;;;;;;;;;;;28.66;32.01;100672.92;84814;1329;22661;-76
2022/06/14 07:49:44;;;;;;;;;;;;;;;28.60;32.69;100674.72;84795;1326;25347;-77
2022/06/14 07:51:50;;;;;;;;;;;;;;;28.85;32.59;100675.95;84819;1327;22856;-77
2022/06/14 07:53:57;;;;;;;;;;;;;;;29.34;32.37;100673.71;84906;1329;22612;-77
2022/06/14 07:56:03;;;;;;;;;;;;;;;29.65;30.73;100674.29;84919;1329;24265;-77
2022/06/14 07:58:08;;;;;;;;;;;;;;;29.30;30.02;100679.30;84838;1328;23308;-77
2022/06/14 08:02:37;;;;;;;;;;;;;;;28.84;31.60;100677.13;84922;1330;24153;-77
2022/06/14 08:04:43;;;;;;;;;;;;;;;29.63;31.30;100670.17;84857;1327;22567;-76
2022/06/14 08:06:48;;;;;;;;;;;;;;;30.37;30.54;100668.86;84826;1327;22591;-76
2022/06/14 08:08:54;;;;;;;;;;;;;;;30.21;29.90;100668.40;84802;1326;22557;-77
2022/06/14 08:11:00;;;;;;;;;;;;;;;29.59;30.11;100668.80;84789;1330;23032;-77
2022/06/14 08:13:07;;;;;;;;;;;;;;;28.84;30.28;100674.03;84812;1327;22624;-77
2022/06/14 08:15:14;;;;;;;;;;;;;;;28.37;30.36;100672.20;84828;1327;22727;-77
2022/06/14 08:17:19;;;;;;;;;;;;;;;28.73;31.00;100675.74;84820;1324;22943;-76
2022/06/14 08:19:24;;;;;;;;;;;;;;;29.47;30.26;100673.09;84800;1327;22583;-76
2022/06/14 08:21:32;;;;;;;;;;;;;;;30.34;30.12;100669.95;84804;1329;25423;-77
2022/06/14 08:23:38;;;;;;;;;;;;;;;30.90;29.45;100668.14;84789;1327;22583;-77
2022/06/14 08:25:43;;;;;;;;;;;;;;;31.09;28.22;100672.02;84797;1322;23047;-77
2022/06/14 08:27:49;;;;;;;;;;;;;;;30.48;28.31;100673.34;84791;1322;24231;-77
2022/06/14 08:29:54;;;;;;;;;;;;;;;30.27;29.18;100670.96;84788;1326;22635;-76
2022/06/14 08:32:02;;;;;;;;;;;;;;;30.86;29.11;100672.59;84785;1325;24352;-76
2022/06/14 08:34:11;;;;;;;;;;;;;;;31.33;27.93;100670.73;84804;1326;22589;-76
2022/06/14 08:36:19;;;;;;;;;;;;;;;31.30;27.06;100668.44;84818;1326;25415;-77
2022/06/14 08:38:27;;;;;;;;;;;;;;;31.35;26.59;100666.96;84825;1326;22585;-76
2022/06/14 08:40:45;;;;;;;;;;;;;;;30.73;26.85;100670.71;84849;1327;24335;-77
2022/06/14 08:42:51;;;;;;;;;;;;;;;29.70;27.51;100671.48;84828;1326;25219;-77
2022/06/14 08:44:57;;;;;;;;;;;;;;;28.83;28.58;100679.55;84795;1330;25421;-77
2022/06/14 08:47:04;;;;;;;;;;;;;;;28.11;29.27;100676.53;84820;1326;22592;-76
2022/06/14 08:49:18;;;;;;;;;;;;;;;27.43;29.93;100678.05;84805;1328;22901;-77
2022/06/14 08:51:28;;;;;;;;;;;;;;;26.77;30.51;100679.80;84744;1326;22736;-77
2022/06/14 08:54:00;;;;;;;;;;;;;;;26.46;31.85;100681.40;84751;1327;24372;-77
2022/06/14 08:56:11;;;;;;;;;;;;;;;26.68;31.99;100681.58;84658;1327;24198;-77
2022/06/14 08:58:25;;;;;;;;;;;;;;;26.48;32.29;100682.36;84833;1325;22569;-78
2022/06/14 09:00:39;;;;;;;;;;;;;;;26.12;32.52;100681.19;84801;1326;24320;-77
2022/06/14 09:03:16;;;;;;;;;;;;;;;25.79;32.17;100678.35;84830;1330;22615;-77
2022/06/14 09:05:57;;;;;;;;;;;;;;;25.44;33.23;100686.55;84820;1326;24270;-77
2022/06/14 09:08:28;;;;;;;;;;;;;;;25.25;33.62;100691.99;84816;1325;22582;-77
2022/06/14 09:10:43;;;;;;;;;;;;;;;25.13;34.52;100692.05;84689;1330;25487;-77
2022/06/14 09:13:12;;;;;;;;;;;;;;;25.65;35.24;100686.73;84772;1326;23965;-77
2022/06/14 09:15:54;;;;;;;;;;;;;;;26.38;34.44;100685.64;84711;1329;25294;-77
2022/06/14 09:18:30;;;;;;;;;;;;;;;26.71;33.55;100678.41;84806;1326;22562;-77
2022/06/14 09:20:44;;;;;;;;;;;;;;;26.37;33.24;100679.80;84830;1325;22606;-78
2022/06/14 09:22:54;;;;;;;;;;;;;;;25.96;32.81;100675.70;84832;1327;22555;-78
2022/06/14 09:25:03;;;;;;;;;;;;;;;25.58;32.66;100683.80;84812;1324;22749;-77
2022/06/14 09:27:18;;;;;;;;;;;;;;;25.20;32.84;100685.44;84815;1326;22780;-75
2022/06/14 09:29:55;;;;;;;;;;;;;;;24.76;33.93;100688.85;84840;1326;22588;-78
2022/06/14 09:50:35;;;;;;;;;;;;;;;21.39;39.23;100717.14;84482;1335;22920;-77
2022/06/14 10:00:36;;;;;;;;;;;;;;;21.20;41.33;100719.80;84469;1331;22582;-76
2022/06/14 10:03:33;;;;;;;;;;;;;;;21.84;42.38;100708.23;84399;1333;24375;-78
2022/06/14 10:05:45;;;;;;;;;;;;;;;22.74;42.09;100701.80;84615;1332;22734;-78
2022/06/14 10:08:30;;;;;;;;;;;;;;;23.36;41.20;100694.59;84552;1332;22594;-77
2022/06/14 10:10:39;;;;;;;;;;;;;;;24.09;40.30;100684.56;84481;1332;22596;-77
2022/06/14 10:12:55;;;;;;;;;;;;;;;24.63;39.38;100683.82;84813;1326;22580;-77
2022/06/14 10:15:01;;;;;;;;;;;;;;;25.19;38.88;100685.35;84817;1326;22533;-77
2022/06/14 10:17:23;;;;;;;;;;;;;;;25.42;37.34;100680.87;84828;1326;22577;-77
2022/06/14 10:20:04;;;;;;;;;;;;;;;25.40;37.02;100684.81;84791;1327;24231;-77
2022/06/14 10:22:14;;;;;;;;;;;;;;;25.09;35.85;100684.91;84769;1326;22776;-77
2022/06/14 10:24:21;;;;;;;;;;;;;;;24.65;35.57;100683.23;84817;1326;22599;-77
2022/06/14 10:29:17;;;;;;;;;;;;;;;23.53;36.37;100691.98;84831;1326;22581;-77
2022/06/14 10:31:24;;;;;;;;;;;;;;;23.06;37.06;100694.64;84844;1327;23000;-78
2022/06/14 10:33:36;;;;;;;;;;;;;;;22.62;37.49;100699.58;84852;1327;25436;-76
2022/06/14 10:35:45;;;;;;;;;;;;;;;22.27;38.40;100705.33;84833;1326;25299;-76
2022/06/14 10:38:02;;;;;;;;;;;;;;;21.93;38.75;100706.98;84836;1326;22816;-77
2022/06/14 10:40:17;;;;;;;;;;;;;;;21.58;39.43;100708.17;84864;1326;22753;-77
2022/06/14 10:42:23;;;;;;;;;;;;;;;21.31;39.49;100714.58;84892;1326;22556;-76
2022/06/14 10:44:30;;;;;;;;;;;;;;;21.06;39.57;100716.30;84904;1325;22681;-76
2022/06/14 10:46:35;;;;;;;;;;;;;;;20.91;40.15;100716.02;84846;1326;22752;-77
2022/06/14 10:49:05;;;;;;;;;;;;;;;20.91;40.71;100712.07;84881;1325;22966;-77
2022/06/14 10:51:19;;;;;;;;;;;;;;;20.93;40.75;100706.83;84812;1323;22592;-76
2022/06/14 10:53:32;;;;;;;;;;;;;;;20.87;41.07;100703.52;84840;1327;22628;-76
2022/06/14 10:55:40;;;;;;;;;;;;;;;20.84;41.44;100703.41;84844;1330;23914;-76
2022/06/14 10:57:56;;;;;;;;;;;;;;;20.80;40.91;100705.99;84838;1326;25307;-77
2022/06/14 11:00:09;;;;;;;;;;;;;;;20.75;41.72;100704.98;84818;1325;22677;-76
2022/06/14 11:02:17;;;;;;;;;;;;;;;20.74;41.96;100711.45;84688;1323;22571;-76
2022/06/14 11:04:24;;;;;;;;;;;;;;;20.81;42.88;100711.09;84825;1327;22599;-77
2022/06/14 11:06:42;;;;;;;;;;;;;;;21.00;42.97;100706.95;84818;1326;22794;-77
2022/06/14 11:08:50;;;;;;;;;;;;;;;21.23;43.34;100705.94;84831;1330;22780;-74
2022/06/14 11:11:16;;;;;;;;;;;;;;;21.30;43.18;100703.39;84959;1326;23857;-77
2022/06/14 11:13:26;;;;;;;;;;;;;;;21.29;42.56;100704.40;84921;1323;22745;-77
2022/06/14 11:15:35;;;;;;;;;;;;;;;21.27;41.76;100702.95;84923;1327;24115;-74
2022/06/14 11:17:57;;;;;;;;;;;;;;;21.20;41.51;100704.55;84863;1330;25414;-77
2022/06/14 11:20:13;;;;;;;;;;;;;;;21.23;41.35;100703.44;85037;1330;24211;-77
2022/06/14 11:22:25;;;;;;;;;;;;;;;21.24;41.30;100706.02;84941;1326;25397;-77
2022/06/14 11:28:07;;;;;;;;;;;;;;;21.53;41.64;100699.15;84485;1329;22604;-78
2022/06/14 11:30:27;;;;;;;;;;;;;;;21.62;40.92;100696.16;84789;1327;24367;-75
2022/06/14 11:32:35;;;;;;;;;;;;;;;21.50;40.19;100703.99;84811;1328;22757;-76
2022/06/14 11:34:53;;;;;;;;;;;;;;;21.26;40.06;100707.31;84958;1326;22603;-79
2022/06/14 11:37:08;;;;;;;;;;;;;;;21.00;40.14;100709.66;84981;1324;22598;-79
2022/06/14 11:39:17;;;;;;;;;;;;;;;20.71;40.65;100715.22;84863;1326;23958;-79
2022/06/14 11:41:22;;;;;;;;;;;;;;;20.52;41.09;100714.12;84849;1326;23370;-77
2022/06/14 11:43:32;;;;;;;;;;;;;;;20.37;41.04;100711.63;84817;1326;22574;-77
2022/06/14 11:45:41;;;;;;;;;;;;;;;20.29;41.43;100707.67;84827;1327;22618;-77
2022/06/14 11:48:09;;;;;;;;;;;;;;;20.30;41.41;100708.46;84818;1326;22573;-77
2022/06/14 11:50:19;;;;;;;;;;;;;;;20.41;41.51;100706.42;84880;1325;24287;-76
2022/06/14 11:52:50;;;;;;;;;;;;;;;20.73;41.95;100706.19;84861;1330;22599;-77
2022/06/14 11:57:45;;;;;;;;;;;;;;;21.27;41.09;100699.60;84401;1327;392000;-77
2022/06/14 12:00:05;;;;;;;;;;;;;;;21.36;40.99;100696.43;84805;1328;22834;-77
2022/06/14 12:02:17;;;;;;;;;;;;;;;21.35;40.62;100698.25;84795;1324;22570;-78
2022/06/14 12:08:08;;;;;;;;;;;;;;;21.08;39.97;100715.96;84422;1334;24090;-77
2022/06/14 12:10:34;;;;;;;;;;;;;;;20.98;40.07;100718.62;84507;1336;22564;-76
2022/06/14 12:18:57;;;;;;;;;;;;;;;20.56;40.27;100731.53;84519;1327;22576;-76
2022/06/14 12:21:03;;;;;;;;;;;;;;;20.43;40.69;100733.23;84805;1325;22659;-76
2022/06/14 12:23:10;;;;;;;;;;;;;;;20.30;40.91;100735.04;84803;1325;23746;-77
2022/06/14 12:28:49;;;;;;;;;;;;;;;20.16;42.09;100745.10;83849;1341;24230;-78
2022/06/14 12:31:35;;;;;;;;;;;;;;;20.18;41.99;100742.79;84268;1338;22752;-78
2022/06/14 12:33:56;;;;;;;;;;;;;;;20.19;42.20;100742.70;84268;1338;22611;-78
2022/06/14 12:36:36;;;;;;;;;;;;;;;20.16;42.07;100747.21;84248;1334;22768;-77
2022/06/14 12:39:11;;;;;;;;;;;;;;;20.12;42.19;100745.91;83313;1347;22679;-77
2022/06/14 12:41:31;;;;;;;;;;;;;;;20.09;42.58;100745.70;83729;1344;22591;-78
2022/06/14 12:46:21;;;;;;;;;;;;;;;20.09;43.22;100750.38;84522;1331;22662;-77
2022/06/14 12:48:33;;;;;;;;;;;;;;;20.13;43.26;100748.14;84542;1332;22584;-77
2022/06/14 12:50:39;;;;;;;;;;;;;;;20.14;42.55;100751.11;84639;1327;25388;-78
2022/06/14 12:52:52;;;;;;;;;;;;;;;20.09;42.51;100750.73;84759;1327;25425;-78
2022/06/14 12:55:00;;;;;;;;;;;;;;;20.06;42.31;100751.13;84798;1327;23749;-78
2022/06/14 12:57:16;;;;;;;;;;;;;;;19.95;42.16;100750.14;84841;1325;22567;-77